createdAt,value
2023-01-22T00:01:09.204Z,17.67
2023-01-22T00:03:36.844Z,18.38
2023-01-22T00:06:03.435Z,17.38
2023-01-22T00:08:29.941Z,19.05
2023-01-22T00:10:56.588Z,18.38
2023-01-22T00:13:24.709Z,17.98
2023-01-22T00:15:51.570Z,22.05
2023-01-22T00:18:21.619Z,19.27
2023-01-22T00:20:49.385Z,16.65
2023-01-22T00:23:20.609Z,16.30
2023-01-22T00:25:47.281Z,15.15
2023-01-22T00:28:14.305Z,13.70
2023-01-22T00:30:43.309Z,19.80
2023-01-22T00:33:09.806Z,15.10
2023-01-22T00:35:36.290Z,18.30
2023-01-22T00:38:03.844Z,21.38
2023-01-22T00:40:32.675Z,22.67
2023-01-22T00:42:59.098Z,24.65
2023-01-22T00:45:25.495Z,16.98
2023-01-22T00:47:56.794Z,21.88
2023-01-22T00:50:23.331Z,24.52
2023-01-22T00:52:50.077Z,20.33
2023-01-22T00:55:16.751Z,23.13
2023-01-22T00:57:43.603Z,22.90
2023-01-22T01:00:11.718Z,23.83
2023-01-22T01:02:58.652Z,26.45
2023-01-22T01:05:25.930Z,22.85
2023-01-22T01:07:52.709Z,27.00
2023-01-22T01:10:20.127Z,18.80
2023-01-22T01:12:46.980Z,24.05
2023-01-22T01:15:15.795Z,17.27
2023-01-22T01:17:42.566Z,27.48
2023-01-22T01:20:10.175Z,25.52
2023-01-22T01:22:36.716Z,21.60
2023-01-22T01:25:03.719Z,27.50
2023-01-22T01:27:31.756Z,26.38
2023-01-22T01:30:00.871Z,20.48
2023-01-22T01:32:30.487Z,22.50
2023-01-22T01:34:59.239Z,24.65
2023-01-22T01:37:28.481Z,20.58
2023-01-22T01:39:54.992Z,25.55
2023-01-22T01:42:29.151Z,29.60
2023-01-22T01:45:25.940Z,25.30
2023-01-22T01:47:59.203Z,28.35
2023-01-22T01:50:28.252Z,29.98
2023-01-22T01:52:56.466Z,23.98
2023-01-22T01:55:28.708Z,23.25
2023-01-22T01:58:00.516Z,22.55
2023-01-22T02:00:31.041Z,32.22
2023-01-22T02:02:57.667Z,22.02
2023-01-22T02:05:27.662Z,18.63
2023-01-22T02:07:54.226Z,23.02
2023-01-22T02:10:20.808Z,24.35
2023-01-22T02:12:47.272Z,44.13
2023-01-22T02:15:14.338Z,42.55
2023-01-22T02:17:40.808Z,33.38
2023-01-22T02:20:07.619Z,30.60
2023-01-22T02:22:40.336Z,29.65
2023-01-22T02:25:10.003Z,26.98
2023-01-22T02:27:36.508Z,28.92
2023-01-22T02:30:03.056Z,28.70
2023-01-22T02:32:29.500Z,25.30
2023-01-22T02:34:58.429Z,23.48
2023-01-22T02:37:24.993Z,22.23
2023-01-22T02:39:51.482Z,25.35
2023-01-22T02:42:18.098Z,22.58
2023-01-22T02:44:47.095Z,26.30
2023-01-22T02:47:13.667Z,20.63
2023-01-22T02:49:40.085Z,19.63
2023-01-22T02:52:06.766Z,19.45
2023-01-22T02:54:33.247Z,22.98
2023-01-22T02:56:59.661Z,21.90
2023-01-22T02:59:29.300Z,17.92
2023-01-22T03:01:57.362Z,22.67
2023-01-22T03:04:24.620Z,19.95
2023-01-22T03:06:51.055Z,22.80
2023-01-22T03:09:22.793Z,28.45
2023-01-22T03:11:49.377Z,20.10
2023-01-22T03:14:34.897Z,23.15
2023-01-22T03:17:19.993Z,23.55
2023-01-22T03:20:05.392Z,20.42
2023-01-22T03:22:32.428Z,23.50
2023-01-22T03:25:01.438Z,23.98
2023-01-22T03:27:30.121Z,19.13
2023-01-22T03:29:59.278Z,13.38
2023-01-22T03:32:25.859Z,22.20
2023-01-22T03:34:53.848Z,16.80
2023-01-22T03:37:21.063Z,22.05
2023-01-22T03:39:48.297Z,17.58
2023-01-22T03:42:14.978Z,19.30
2023-01-22T03:44:41.604Z,18.08
2023-01-22T03:47:08.666Z,19.30
2023-01-22T03:49:35.306Z,20.88
2023-01-22T03:52:01.820Z,15.82
2023-01-22T03:54:28.205Z,15.35
2023-01-22T03:56:55.281Z,16.30
2023-01-22T03:59:25.038Z,14.00
2023-01-22T04:01:53.576Z,22.10
2023-01-22T04:04:20.398Z,22.50
2023-01-22T04:06:49.436Z,16.70
2023-01-22T04:09:16.275Z,15.05
2023-01-22T04:11:43.322Z,14.80
2023-01-22T04:14:12.937Z,16.75
2023-01-22T04:16:39.919Z,15.25
2023-01-22T04:19:06.527Z,12.98
2023-01-22T04:21:33.025Z,12.82
2023-01-22T04:23:59.839Z,17.23
2023-01-22T04:26:28.718Z,11.88
2023-01-22T04:28:56.364Z,14.02
2023-01-22T04:31:23.200Z,21.30
2023-01-22T04:33:52.449Z,13.45
2023-01-22T04:36:19.343Z,15.60
2023-01-22T04:38:45.859Z,19.77
2023-01-22T04:41:12.940Z,13.70
2023-01-22T04:43:44.292Z,15.27
2023-01-22T04:46:11.560Z,12.75
2023-01-22T04:48:38.371Z,18.77
2023-01-22T04:51:07.585Z,15.57
2023-01-22T04:53:34.407Z,12.90
2023-01-22T04:56:01.283Z,17.25
2023-01-22T04:58:27.837Z,13.68
2023-01-22T05:00:56.568Z,19.30
2023-01-22T05:03:26.636Z,18.17
2023-01-22T05:05:53.785Z,14.38
2023-01-22T05:08:20.441Z,16.45
2023-01-22T05:10:49.342Z,11.18
2023-01-22T05:13:16.070Z,13.65
2023-01-22T05:15:42.522Z,15.05
2023-01-22T05:18:09.468Z,12.93
2023-01-22T05:20:36.114Z,16.17
2023-01-22T05:23:02.953Z,14.02
2023-01-22T05:25:29.842Z,11.63
2023-01-22T05:27:56.271Z,14.32
2023-01-22T05:30:22.833Z,12.35
2023-01-22T05:32:49.309Z,11.30
2023-01-22T05:35:15.826Z,16.35
2023-01-22T05:37:42.829Z,11.43
2023-01-22T05:40:10.045Z,11.57
2023-01-22T05:42:37.033Z,10.45
2023-01-22T05:45:04.072Z,11.38
2023-01-22T05:47:30.519Z,14.07
2023-01-22T05:49:57.049Z,8.23
2023-01-22T05:52:23.661Z,14.75
2023-01-22T05:54:50.403Z,10.23
2023-01-22T05:57:16.808Z,10.25
2023-01-22T05:59:43.339Z,15.13
2023-01-22T06:02:10.165Z,7.75
2023-01-22T06:04:36.747Z,17.35
2023-01-22T06:07:03.190Z,11.73
2023-01-22T06:09:32.820Z,10.82
2023-01-22T06:11:59.333Z,10.85
2023-01-22T06:14:25.765Z,13.52
2023-01-22T06:16:52.721Z,12.82
2023-01-22T06:19:19.145Z,9.52
2023-01-22T06:21:45.635Z,10.60
2023-01-22T06:24:12.167Z,25.25
2023-01-22T06:26:39.014Z,17.83
2023-01-22T06:29:08.364Z,12.88
2023-01-22T06:31:34.965Z,14.98
2023-01-22T06:34:01.572Z,11.77
2023-01-22T06:36:27.942Z,12.80
2023-01-22T06:38:54.408Z,10.75
2023-01-22T06:41:23.252Z,12.57
2023-01-22T06:43:52.759Z,10.85
2023-01-22T06:46:21.710Z,9.70
2023-01-22T06:48:49.899Z,15.57
2023-01-22T06:51:17.044Z,13.65
2023-01-22T06:53:43.842Z,12.10
2023-01-22T06:56:10.308Z,15.88
2023-01-22T06:58:37.511Z,17.92
2023-01-22T07:01:06.749Z,16.70
2023-01-22T07:03:33.901Z,10.63
2023-01-22T07:06:04.358Z,14.10
2023-01-22T07:08:33.422Z,8.50
2023-01-22T07:11:01.009Z,9.88
2023-01-22T07:13:27.889Z,9.15
2023-01-22T07:15:54.568Z,9.75
2023-01-22T07:18:24.155Z,20.98
2023-01-22T07:20:56.770Z,13.57
2023-01-22T07:23:23.392Z,8.95
2023-01-22T07:25:51.820Z,12.35
2023-01-22T07:28:18.351Z,19.60
2023-01-22T07:30:48.131Z,10.43
2023-01-22T07:33:20.054Z,11.02
2023-01-22T07:35:55.408Z,11.10
2023-01-22T07:38:22.116Z,8.55
2023-01-22T07:40:49.125Z,18.27
2023-01-22T07:43:16.282Z,10.65
2023-01-22T07:45:42.696Z,12.18
2023-01-22T07:48:10.760Z,10.63
2023-01-22T07:50:40.090Z,10.80
2023-01-22T07:53:08.130Z,14.82
2023-01-22T07:55:34.601Z,13.23
2023-01-22T07:58:04.351Z,8.10
2023-01-22T08:00:35.507Z,9.80
2023-01-22T08:03:04.482Z,9.50
2023-01-22T08:05:31.003Z,10.48
2023-01-22T08:07:57.431Z,8.38
2023-01-22T08:10:26.136Z,8.57
2023-01-22T08:12:55.593Z,7.72
2023-01-22T08:15:22.563Z,6.75
2023-01-22T08:17:51.034Z,6.32
2023-01-22T08:20:18.068Z,8.00
2023-01-22T08:22:45.411Z,7.53
2023-01-22T08:25:11.862Z,8.27
2023-01-22T08:27:38.428Z,9.18
2023-01-22T08:30:05.874Z,9.63
2023-01-22T08:32:32.337Z,15.30
2023-01-22T08:34:58.879Z,8.90
2023-01-22T08:37:26.020Z,18.88
2023-01-22T08:39:52.485Z,7.30
2023-01-22T08:42:24.048Z,8.90
2023-01-22T08:44:50.451Z,9.40
2023-01-22T08:47:17.057Z,20.52
2023-01-22T08:49:43.696Z,14.77
2023-01-22T08:52:10.316Z,16.10
2023-01-22T08:54:39.181Z,15.60
2023-01-22T08:57:05.553Z,16.55
2023-01-22T08:59:32.445Z,13.20
2023-01-22T09:01:59.931Z,9.43
2023-01-22T09:04:26.721Z,10.50
2023-01-22T09:06:53.230Z,9.07
2023-01-22T09:09:19.586Z,9.10
2023-01-22T09:11:46.800Z,8.52
2023-01-22T09:14:18.445Z,12.55
2023-01-22T09:16:45.096Z,11.57
2023-01-22T09:19:12.057Z,8.50
2023-01-22T09:21:38.743Z,9.57
2023-01-22T09:24:06.623Z,5.40
2023-01-22T09:26:33.792Z,13.57
2023-01-22T09:29:01.315Z,7.93
2023-01-22T09:31:30.611Z,8.68
2023-01-22T09:33:57.006Z,9.15
2023-01-22T09:36:23.682Z,12.13
2023-01-22T09:38:50.594Z,5.53
2023-01-22T09:41:39.067Z,7.10
2023-01-22T09:44:12.857Z,9.85
2023-01-22T09:46:44.521Z,8.45
2023-01-22T09:49:17.964Z,7.13
2023-01-22T09:52:00.578Z,12.93
2023-01-22T09:54:29.375Z,22.05
2023-01-22T09:56:58.483Z,18.65
2023-01-22T09:59:48.914Z,10.30
2023-01-22T10:02:28.037Z,16.83
2023-01-22T10:05:00.937Z,9.13
2023-01-22T10:07:39.631Z,17.30
2023-01-22T10:10:18.631Z,7.70
2023-01-22T10:12:51.118Z,9.00
2023-01-22T10:15:22.287Z,10.90
2023-01-22T10:17:49.171Z,9.13
2023-01-22T10:20:18.791Z,6.78
2023-01-22T10:22:45.592Z,8.45
2023-01-22T10:25:16.571Z,5.80
2023-01-22T10:27:44.784Z,6.45
2023-01-22T10:30:14.520Z,5.65
2023-01-22T10:32:41.000Z,5.88
2023-01-22T10:35:18.311Z,5.93
2023-01-22T10:37:48.734Z,8.95
2023-01-22T10:40:30.981Z,5.28
2023-01-22T10:43:17.650Z,7.18
2023-01-22T10:46:01.464Z,6.63
2023-01-22T10:48:27.921Z,8.57
2023-01-22T10:51:11.997Z,7.90
2023-01-22T10:53:45.607Z,13.90
2023-01-22T10:56:13.034Z,5.65
2023-01-22T10:58:46.048Z,8.50
2023-01-22T11:01:26.978Z,8.63
2023-01-22T11:03:53.533Z,9.68
2023-01-22T11:06:30.076Z,10.27
2023-01-22T11:09:23.847Z,6.72
2023-01-22T11:12:18.262Z,6.85
2023-01-22T11:14:47.781Z,6.07
2023-01-22T11:17:27.540Z,4.95
2023-01-22T11:20:02.783Z,5.35
2023-01-22T11:22:35.196Z,4.85
2023-01-22T11:27:49.887Z,5.93
2023-01-22T11:30:37.288Z,5.30
2023-01-22T11:33:21.501Z,7.63
2023-01-22T11:35:56.207Z,6.20
2023-01-22T11:38:38.579Z,5.45
2023-01-22T11:41:16.432Z,6.97
2023-01-22T11:44:20.511Z,5.88
2023-01-22T11:47:04.704Z,4.22
2023-01-22T11:49:55.421Z,6.43
2023-01-22T11:52:37.320Z,6.20
2023-01-22T11:55:40.964Z,5.47
2023-01-22T11:58:24.436Z,12.57
2023-01-22T12:01:08.616Z,7.85
2023-01-22T12:04:10.461Z,8.85
2023-01-22T12:07:11.889Z,6.32
2023-01-22T12:09:56.239Z,7.95
2023-01-22T12:12:43.963Z,9.73
2023-01-22T12:15:34.401Z,7.38
2023-01-22T12:18:03.683Z,10.65
2023-01-22T12:21:05.848Z,9.07
2023-01-22T12:23:38.130Z,8.40
2023-01-22T12:26:04.674Z,7.20
2023-01-22T12:28:34.642Z,6.50
2023-01-22T12:31:05.402Z,9.10
2023-01-22T12:33:38.192Z,5.55
2023-01-22T12:36:07.952Z,9.20
2023-01-22T12:38:56.081Z,6.55
2023-01-22T12:41:52.296Z,8.02
2023-01-22T12:44:46.135Z,7.18
2023-01-22T12:47:21.824Z,5.93
2023-01-22T12:49:52.287Z,9.68
2023-01-22T12:52:27.966Z,11.13
2023-01-22T12:54:55.597Z,4.65
2023-01-22T12:57:21.985Z,5.35
2023-01-22T12:59:54.496Z,6.07
2023-01-22T13:02:32.025Z,4.32
2023-01-22T13:05:12.670Z,5.13
2023-01-22T13:07:43.019Z,8.00
2023-01-22T13:10:26.519Z,8.40
2023-01-22T13:13:03.176Z,3.72
2023-01-22T13:15:37.364Z,4.07
2023-01-22T13:18:19.321Z,10.80
2023-01-22T13:20:56.708Z,7.82
2023-01-22T13:23:26.434Z,7.75
2023-01-22T13:25:57.141Z,7.45
2023-01-22T13:28:25.297Z,11.10
2023-01-22T13:31:13.371Z,6.90
2023-01-22T13:33:39.866Z,11.75
2023-01-22T13:36:14.956Z,7.43
2023-01-22T13:38:41.439Z,7.93
2023-01-22T13:41:10.991Z,4.55
2023-01-22T13:43:39.490Z,5.95
2023-01-22T13:46:07.043Z,6.50
2023-01-22T13:48:36.178Z,5.78
2023-01-22T13:51:14.440Z,5.53
2023-01-22T13:53:45.777Z,5.25
2023-01-22T13:56:17.112Z,5.78
2023-01-22T13:58:48.870Z,11.23
2023-01-22T14:01:33.555Z,10.65
2023-01-22T14:04:24.530Z,14.30
2023-01-22T14:06:51.160Z,6.15
2023-01-22T14:09:31.286Z,6.03
2023-01-22T14:11:59.387Z,6.80
2023-01-22T14:14:31.029Z,6.40
2023-01-22T14:16:57.506Z,4.07
2023-01-22T14:19:23.978Z,11.07
2023-01-22T14:21:50.390Z,7.72
2023-01-22T14:24:16.870Z,6.05
2023-01-22T14:26:43.599Z,7.75
2023-01-22T14:29:10.054Z,4.88
2023-01-22T14:31:39.387Z,4.43
2023-01-22T14:34:06.048Z,10.70
2023-01-22T14:36:33.302Z,6.15
2023-01-22T14:39:00.249Z,7.07
2023-01-22T14:41:27.210Z,7.10
2023-01-22T14:43:53.716Z,6.25
2023-01-22T14:46:20.277Z,5.50
2023-01-22T14:48:47.394Z,7.35
2023-01-22T14:51:14.094Z,6.50
2023-01-22T14:53:40.647Z,6.05
2023-01-22T14:56:07.491Z,6.25
2023-01-22T14:58:33.917Z,4.65
2023-01-22T15:01:13.325Z,5.28
2023-01-22T15:03:39.824Z,6.18
2023-01-22T15:06:06.268Z,11.05
2023-01-22T15:08:32.666Z,8.88
2023-01-22T15:11:02.961Z,8.10
2023-01-22T15:13:29.339Z,4.68
2023-01-22T15:15:56.141Z,8.95
2023-01-22T15:18:22.695Z,8.32
2023-01-22T15:20:49.331Z,9.30
2023-01-22T15:23:16.378Z,7.10
2023-01-22T15:25:42.816Z,6.78
2023-01-22T15:28:09.219Z,6.53
2023-01-22T15:30:40.492Z,8.13
2023-01-22T15:33:07.558Z,14.55
2023-01-22T15:35:34.222Z,10.60
2023-01-22T15:38:05.906Z,5.60
2023-01-22T15:40:32.449Z,6.37
2023-01-22T15:42:58.854Z,7.32
2023-01-22T15:45:25.490Z,5.93
2023-01-22T15:47:53.552Z,7.85
2023-01-22T15:50:21.460Z,7.88
2023-01-22T15:52:55.020Z,11.60
2023-01-22T15:55:21.753Z,8.20
2023-01-22T15:57:48.313Z,8.35
2023-01-22T16:00:15.390Z,7.63
2023-01-22T16:02:42.306Z,13.77
2023-01-22T16:05:13.102Z,8.23
2023-01-22T16:07:39.567Z,7.45
2023-01-22T16:10:06.249Z,8.68
2023-01-22T16:12:34.810Z,10.15
2023-01-22T16:15:01.419Z,8.73
2023-01-22T16:17:27.953Z,7.47
2023-01-22T16:19:54.340Z,6.05
2023-01-22T16:22:23.424Z,9.60
2023-01-22T16:24:52.203Z,9.70
2023-01-22T16:27:18.746Z,12.38
2023-01-22T16:29:47.847Z,9.05
2023-01-22T16:32:14.293Z,8.70
2023-01-22T16:34:42.929Z,11.25
2023-01-22T16:37:09.360Z,12.35
2023-01-22T16:39:36.733Z,10.95
2023-01-22T16:42:03.462Z,11.68
2023-01-22T16:44:33.767Z,8.80
2023-01-22T16:47:00.795Z,11.13
2023-01-22T16:49:32.702Z,7.32
2023-01-22T16:52:21.975Z,9.02
2023-01-22T16:54:49.811Z,13.38
2023-01-22T16:57:18.129Z,13.95
2023-01-22T16:59:47.521Z,22.85
2023-01-22T17:02:16.473Z,50.30
2023-01-22T17:04:54.339Z,43.40
2023-01-22T17:07:33.283Z,19.23
2023-01-22T17:10:03.647Z,17.27
2023-01-22T17:12:33.909Z,10.73
2023-01-22T17:15:03.587Z,18.80
2023-01-22T17:17:32.583Z,11.32
2023-01-22T17:19:59.248Z,13.18
2023-01-22T17:22:26.593Z,11.00
2023-01-22T17:24:53.538Z,11.02
2023-01-22T17:27:21.609Z,13.15
2023-01-22T17:29:53.223Z,15.60
2023-01-22T17:32:20.652Z,14.67
2023-01-22T17:34:47.105Z,15.15
2023-01-22T17:37:13.922Z,12.93
2023-01-22T17:39:42.815Z,10.23
2023-01-22T17:42:09.515Z,13.18
2023-01-22T17:44:36.040Z,12.85
2023-01-22T17:47:07.357Z,13.70
2023-01-22T17:49:36.123Z,10.60
2023-01-22T17:52:03.283Z,11.40
2023-01-22T17:54:30.076Z,14.20
2023-01-22T17:56:56.939Z,13.65
2023-01-22T17:59:25.836Z,10.30
2023-01-22T18:01:54.712Z,13.07
2023-01-22T18:04:23.940Z,30.73
2023-01-22T18:06:50.376Z,17.85
2023-01-22T18:09:20.679Z,15.07
2023-01-22T18:11:47.591Z,14.45
2023-01-22T18:14:21.715Z,16.38
2023-01-22T18:16:50.751Z,17.02
2023-01-22T18:19:22.793Z,17.13
2023-01-22T18:21:49.662Z,16.77
2023-01-22T18:24:23.059Z,17.02
2023-01-22T18:26:50.588Z,16.98
2023-01-22T18:29:17.076Z,13.68
2023-01-22T18:31:44.477Z,15.93
2023-01-22T18:34:14.490Z,18.55
2023-01-22T18:36:42.395Z,16.83
2023-01-22T18:39:12.729Z,14.82
2023-01-22T18:41:40.720Z,15.98
2023-01-22T18:44:08.747Z,14.18
2023-01-22T18:46:41.464Z,15.57
2023-01-22T18:49:12.259Z,12.73
2023-01-22T18:51:41.843Z,13.68
2023-01-22T18:54:13.428Z,12.60
2023-01-22T18:56:42.587Z,22.67
2023-01-22T18:59:09.148Z,15.93
2023-01-22T19:01:38.553Z,13.52
2023-01-22T19:04:09.769Z,15.27
2023-01-22T19:06:37.918Z,20.13
2023-01-22T19:09:09.506Z,16.00
2023-01-22T19:11:39.227Z,18.43
2023-01-22T19:14:09.099Z,20.35
2023-01-22T19:16:37.470Z,24.67
2023-01-22T19:19:11.266Z,17.23
2023-01-22T19:21:43.537Z,15.43
2023-01-22T19:24:11.559Z,14.65
2023-01-22T19:26:38.399Z,14.57
2023-01-22T19:29:09.407Z,12.35
2023-01-22T19:31:40.759Z,18.45
2023-01-22T19:34:09.077Z,13.80
2023-01-22T19:36:40.442Z,13.93
2023-01-22T19:39:13.617Z,15.80
2023-01-22T19:41:41.234Z,13.52
2023-01-22T19:44:09.673Z,15.55
2023-01-22T19:46:39.366Z,14.77
2023-01-22T19:49:06.926Z,11.75
2023-01-22T19:51:36.022Z,17.40
2023-01-22T19:54:04.596Z,12.82
2023-01-22T19:56:33.734Z,15.55
2023-01-22T19:59:05.812Z,13.10
2023-01-22T20:01:36.736Z,13.15
2023-01-22T20:04:07.255Z,12.60
2023-01-22T20:06:33.751Z,14.40
2023-01-22T20:09:03.607Z,14.93
2023-01-22T20:11:32.670Z,18.75
2023-01-22T20:13:59.208Z,13.85
2023-01-22T20:16:28.265Z,14.93
2023-01-22T20:18:56.883Z,14.75
2023-01-22T20:21:25.333Z,14.85
2023-01-22T20:23:52.544Z,17.08
2023-01-22T20:26:21.411Z,14.50
2023-01-22T20:28:51.152Z,9.55
2023-01-22T20:31:23.063Z,12.98
2023-01-22T20:33:54.652Z,15.73
2023-01-22T20:36:24.477Z,27.77
2023-01-22T20:38:53.279Z,17.02
2023-01-22T20:41:21.628Z,15.80
2023-01-22T20:43:48.357Z,20.83
2023-01-22T20:46:20.563Z,14.82
2023-01-22T20:48:47.591Z,17.90
2023-01-22T20:51:16.595Z,17.67
2023-01-22T20:53:44.238Z,15.10
2023-01-22T20:56:26.955Z,21.25
2023-01-22T20:58:58.631Z,15.68
2023-01-22T21:01:25.482Z,12.90
2023-01-22T21:03:55.800Z,12.77
2023-01-22T21:06:22.609Z,12.07
2023-01-22T21:08:52.415Z,14.48
2023-01-22T21:11:20.786Z,20.67
2023-01-22T21:13:49.167Z,25.23
2023-01-22T21:16:18.942Z,27.63
2023-01-22T21:18:46.686Z,30.30
2023-01-22T21:21:18.634Z,22.85
2023-01-22T21:23:48.903Z,25.77
2023-01-22T21:26:19.082Z,18.10
2023-01-22T21:28:48.443Z,18.40
2023-01-22T21:31:18.311Z,19.27
2023-01-22T21:33:48.665Z,20.25
2023-01-22T21:36:18.244Z,18.50
2023-01-22T21:38:47.846Z,14.30
2023-01-22T21:41:16.954Z,24.40
2023-01-22T21:44:04.258Z,16.17
2023-01-22T21:46:42.508Z,17.90
2023-01-22T21:49:19.909Z,13.93
2023-01-22T21:51:52.050Z,14.35
2023-01-22T21:54:22.033Z,13.40
2023-01-22T21:56:49.185Z,16.30
2023-01-22T21:59:15.884Z,16.05
2023-01-22T22:01:43.093Z,13.00
2023-01-22T22:04:10.098Z,10.52
2023-01-22T22:06:39.586Z,15.68
2023-01-22T22:09:10.583Z,11.80
2023-01-22T22:11:37.110Z,19.65
2023-01-22T22:14:05.700Z,21.45
2023-01-22T22:16:36.119Z,11.20
2023-01-22T22:19:02.663Z,14.63
2023-01-22T22:21:29.053Z,13.00
2023-01-22T22:23:58.016Z,12.07
2023-01-22T22:26:27.564Z,14.10
2023-01-22T22:28:54.287Z,13.93
2023-01-22T22:31:23.151Z,15.07
2023-01-22T22:33:52.285Z,11.40
2023-01-22T22:36:22.008Z,11.77
2023-01-22T22:38:54.092Z,16.90
2023-01-22T22:41:26.530Z,12.63
2023-01-22T22:43:54.603Z,17.90
2023-01-22T22:46:22.998Z,13.65
2023-01-22T22:48:50.114Z,15.85
2023-01-22T22:51:27.307Z,16.50
2023-01-22T22:53:56.929Z,13.45
2023-01-22T22:56:24.308Z,14.38
2023-01-22T22:58:51.872Z,13.90
2023-01-22T23:01:21.546Z,14.93
2023-01-22T23:03:48.550Z,11.55
2023-01-22T23:06:21.324Z,13.00
2023-01-22T23:08:58.398Z,10.48
2023-01-22T23:11:27.192Z,12.32
2023-01-22T23:13:54.096Z,13.13
2023-01-22T23:16:22.778Z,14.63
2023-01-22T23:18:53.857Z,12.70
2023-01-22T23:21:25.019Z,13.45
2023-01-22T23:23:52.381Z,13.32
2023-01-22T23:26:22.938Z,15.57
2023-01-22T23:28:51.927Z,12.80
2023-01-22T23:31:18.709Z,16.08
2023-01-22T23:33:45.418Z,11.95
2023-01-22T23:36:14.692Z,11.68
2023-01-22T23:38:41.194Z,14.00
2023-01-22T23:41:09.928Z,14.25
2023-01-22T23:43:39.443Z,15.98
2023-01-22T23:46:10.862Z,15.48
2023-01-22T23:48:37.653Z,20.52
2023-01-22T23:51:06.292Z,12.25
2023-01-22T23:53:35.849Z,10.82
2023-01-22T23:56:04.003Z,14.40
2023-01-22T23:58:30.644Z,10.75
